sensor_id;sensor_type;location;lat;lon;timestamp;temperature;humidity
60033;DHT22;45905;50.570;10.428;2023-02-28T00:01:33;-0.90;98.50
60033;DHT22;45905;50.570;10.428;2023-02-28T00:04:00;-0.90;98.50
60033;DHT22;45905;50.570;10.428;2023-02-28T00:06:28;-0.90;98.50
60033;DHT22;45905;50.570;10.428;2023-02-28T00:08:56;-0.80;98.50
60033;DHT22;45905;50.570;10.428;2023-02-28T00:11:23;-1.00;98.40
60033;DHT22;45905;50.570;10.428;2023-02-28T00:13:50;-0.70;98.50
60033;DHT22;45905;50.570;10.428;2023-02-28T00:16:21;-1.10;98.40
60033;DHT22;45905;50.570;10.428;2023-02-28T00:18:49;-1.00;98.50
60033;DHT22;45905;50.570;10.428;2023-02-28T00:21:17;-1.10;98.50
60033;DHT22;45905;50.570;10.428;2023-02-28T00:23:45;-1.10;98.50
60033;DHT22;45905;50.570;10.428;2023-02-28T00:26:12;-1.10;98.50
60033;DHT22;45905;50.570;10.428;2023-02-28T00:28:43;-1.20;98.40
60033;DHT22;45905;50.570;10.428;2023-02-28T00:31:10;-1.20;98.50
60033;DHT22;45905;50.570;10.428;2023-02-28T00:33:38;-0.90;98.70
60033;DHT22;45905;50.570;10.428;2023-02-28T00:36:07;-1.20;98.60
60033;DHT22;45905;50.570;10.428;2023-02-28T00:38:37;-1.30;98.30
60033;DHT22;45905;50.570;10.428;2023-02-28T00:41:05;-1.20;98.40
60033;DHT22;45905;50.570;10.428;2023-02-28T00:43:35;-0.20;99.00
60033;DHT22;45905;50.570;10.428;2023-02-28T00:46:04;-0.50;99.00
60033;DHT22;45905;50.570;10.428;2023-02-28T00:48:32;-1.50;98.80
60033;DHT22;45905;50.570;10.428;2023-02-28T00:53:27;-1.50;99.10
60033;DHT22;45905;50.570;10.428;2023-02-28T00:55:56;-1.40;98.70
60033;DHT22;45905;50.570;10.428;2023-02-28T00:58:25;-1.50;98.60
60033;DHT22;45905;50.570;10.428;2023-02-28T01:00:53;-1.50;98.60
60033;DHT22;45905;50.570;10.428;2023-02-28T01:03:21;-1.60;98.50
60033;DHT22;45905;50.570;10.428;2023-02-28T01:05:49;-1.20;98.60
60033;DHT22;45905;50.570;10.428;2023-02-28T01:08:17;-1.60;98.40
60033;DHT22;45905;50.570;10.428;2023-02-28T01:10:44;-0.80;98.70
60033;DHT22;45905;50.570;10.428;2023-02-28T01:13:12;-1.80;98.30
60033;DHT22;45905;50.570;10.428;2023-02-28T01:15:50;-1.70;98.40
60033;DHT22;45905;50.570;10.428;2023-02-28T01:18:19;-1.90;98.40
60033;DHT22;45905;50.570;10.428;2023-02-28T01:20:48;-1.90;98.60
60033;DHT22;45905;50.570;10.428;2023-02-28T01:23:15;-1.90;98.70
60033;DHT22;45905;50.570;10.428;2023-02-28T01:25:43;-1.50;98.90
60033;DHT22;45905;50.570;10.428;2023-02-28T01:28:10;-2.00;98.80
60033;DHT22;45905;50.570;10.428;2023-02-28T01:30:37;-2.00;98.90
60033;DHT22;45905;50.570;10.428;2023-02-28T01:33:05;-1.90;99.00
60033;DHT22;45905;50.570;10.428;2023-02-28T01:35:34;-1.90;99.00
60033;DHT22;45905;50.570;10.428;2023-02-28T01:38:02;-1.90;99.10
60033;DHT22;45905;50.570;10.428;2023-02-28T01:40:46;-1.90;99.20
60033;DHT22;45905;50.570;10.428;2023-02-28T01:43:28;-1.90;99.40
60033;DHT22;45905;50.570;10.428;2023-02-28T01:45:58;-1.40;99.70
60033;DHT22;45905;50.570;10.428;2023-02-28T01:48:30;-1.90;99.40
60033;DHT22;45905;50.570;10.428;2023-02-28T01:51:04;-1.90;99.40
60033;DHT22;45905;50.570;10.428;2023-02-28T01:53:45;-1.90;99.40
60033;DHT22;45905;50.570;10.428;2023-02-28T01:56:22;-1.10;99.90
60033;DHT22;45905;50.570;10.428;2023-02-28T01:58:54;-2.00;99.80
60033;DHT22;45905;50.570;10.428;2023-02-28T02:01:23;-1.10;99.90
60033;DHT22;45905;50.570;10.428;2023-02-28T02:03:57;-1.90;99.90
60033;DHT22;45905;50.570;10.428;2023-02-28T02:06:48;-2.00;99.90
60033;DHT22;45905;50.570;10.428;2023-02-28T02:09:16;-1.90;99.90
60033;DHT22;45905;50.570;10.428;2023-02-28T02:11:45;-1.90;99.90
60033;DHT22;45905;50.570;10.428;2023-02-28T02:14:26;-1.90;99.90
60033;DHT22;45905;50.570;10.428;2023-02-28T02:17:08;-1.90;99.90
60033;DHT22;45905;50.570;10.428;2023-02-28T02:38:03;-1.80;99.90
60033;DHT22;45905;50.570;10.428;2023-02-28T02:43:36;-1.80;99.90
60033;DHT22;45905;50.570;10.428;2023-02-28T02:46:14;-1.80;99.90
60033;DHT22;45905;50.570;10.428;2023-02-28T02:48:47;-1.10;99.90
60033;DHT22;45905;50.570;10.428;2023-02-28T02:51:18;-1.80;99.90
60033;DHT22;45905;50.570;10.428;2023-02-28T02:54:02;-1.60;99.90
60033;DHT22;45905;50.570;10.428;2023-02-28T02:56:35;-1.80;99.90
60033;DHT22;45905;50.570;10.428;2023-02-28T02:59:07;-1.50;99.90
60033;DHT22;45905;50.570;10.428;2023-02-28T03:01:40;-1.80;99.90
60033;DHT22;45905;50.570;10.428;2023-02-28T03:04:12;-1.30;99.90
60033;DHT22;45905;50.570;10.428;2023-02-28T03:06:43;-1.50;99.90
60033;DHT22;45905;50.570;10.428;2023-02-28T03:09:10;-1.80;99.90
60033;DHT22;45905;50.570;10.428;2023-02-28T03:11:40;-2.40;99.90
60033;DHT22;45905;50.570;10.428;2023-02-28T03:22:52;-1.70;99.90
60033;DHT22;45905;50.570;10.428;2023-02-28T03:28:47;-1.70;99.90
60033;DHT22;45905;50.570;10.428;2023-02-28T03:31:24;-1.70;99.90
60033;DHT22;45905;50.570;10.428;2023-02-28T03:36:42;-1.70;99.90
60033;DHT22;45905;50.570;10.428;2023-02-28T03:39:18;-1.70;99.90
60033;DHT22;45905;50.570;10.428;2023-02-28T03:42:00;-1.70;99.90
60033;DHT22;45905;50.570;10.428;2023-02-28T03:44:43;-1.70;99.90
60033;DHT22;45905;50.570;10.428;2023-02-28T03:47:25;-1.70;99.90
60033;DHT22;45905;50.570;10.428;2023-02-28T03:49:59;-1.70;99.90
60033;DHT22;45905;50.570;10.428;2023-02-28T03:52:37;-1.50;99.90
60033;DHT22;45905;50.570;10.428;2023-02-28T03:55:13;-1.70;99.90
60033;DHT22;45905;50.570;10.428;2023-02-28T03:58:20;-1.70;99.90
60033;DHT22;45905;50.570;10.428;2023-02-28T04:00:54;-1.90;99.70
60033;DHT22;45905;50.570;10.428;2023-02-28T04:03:36;-1.10;99.90
60033;DHT22;45905;50.570;10.428;2023-02-28T04:06:07;-0.90;99.90
60033;DHT22;45905;50.570;10.428;2023-02-28T04:08:39;-1.80;99.90
60033;DHT22;45905;50.570;10.428;2023-02-28T04:13:59;-1.90;99.80
60033;DHT22;45905;50.570;10.428;2023-02-28T04:16:26;-1.90;99.90
60033;DHT22;45905;50.570;10.428;2023-02-28T04:19:03;-2.00;99.90
60033;DHT22;45905;50.570;10.428;2023-02-28T04:21:36;-1.90;99.90
60033;DHT22;45905;50.570;10.428;2023-02-28T04:24:11;-1.70;99.90
60033;DHT22;45905;50.570;10.428;2023-02-28T04:26:49;-2.10;99.80
60033;DHT22;45905;50.570;10.428;2023-02-28T04:29:20;-2.10;99.90
60033;DHT22;45905;50.570;10.428;2023-02-28T04:31:49;-2.20;99.70
60033;DHT22;45905;50.570;10.428;2023-02-28T04:34:17;-2.20;99.70
60033;DHT22;45905;50.570;10.428;2023-02-28T04:36:45;-2.30;99.70
60033;DHT22;45905;50.570;10.428;2023-02-28T04:39:12;-2.30;99.80
60033;DHT22;45905;50.570;10.428;2023-02-28T04:41:40;-2.40;99.80
60033;DHT22;45905;50.570;10.428;2023-02-28T04:44:07;-2.10;99.90
60033;DHT22;45905;50.570;10.428;2023-02-28T04:46:34;-1.20;99.90
60033;DHT22;45905;50.570;10.428;2023-02-28T04:49:02;-2.00;99.90
60033;DHT22;45905;50.570;10.428;2023-02-28T04:51:29;-2.50;99.70
60033;DHT22;45905;50.570;10.428;2023-02-28T04:53:57;-2.60;99.70
60033;DHT22;45905;50.570;10.428;2023-02-28T04:56:24;-2.60;99.70
60033;DHT22;45905;50.570;10.428;2023-02-28T04:58:51;-2.00;99.90
60033;DHT22;45905;50.570;10.428;2023-02-28T05:01:31;-2.70;99.60
60033;DHT22;45905;50.570;10.428;2023-02-28T05:04:02;-2.80;99.50
60033;DHT22;45905;50.570;10.428;2023-02-28T05:06:32;-2.80;99.60
60033;DHT22;45905;50.570;10.428;2023-02-28T05:09:00;-2.90;99.70
60033;DHT22;45905;50.570;10.428;2023-02-28T05:11:30;-2.90;99.60
60033;DHT22;45905;50.570;10.428;2023-02-28T05:14:07;-3.00;99.70
60033;DHT22;45905;50.570;10.428;2023-02-28T05:16:40;-3.00;99.70
60033;DHT22;45905;50.570;10.428;2023-02-28T05:19:08;-3.00;99.80
60033;DHT22;45905;50.570;10.428;2023-02-28T05:21:37;-3.10;99.80
60033;DHT22;45905;50.570;10.428;2023-02-28T05:24:17;-3.10;99.80
60033;DHT22;45905;50.570;10.428;2023-02-28T05:26:51;-3.10;99.90
60033;DHT22;45905;50.570;10.428;2023-02-28T05:29:20;-3.10;99.90
60033;DHT22;45905;50.570;10.428;2023-02-28T05:31:47;-3.20;99.90
60033;DHT22;45905;50.570;10.428;2023-02-28T05:34:15;-3.20;99.90
60033;DHT22;45905;50.570;10.428;2023-02-28T05:36:42;-3.20;99.90
60033;DHT22;45905;50.570;10.428;2023-02-28T05:39:10;-3.20;99.90
60033;DHT22;45905;50.570;10.428;2023-02-28T05:41:41;-3.20;99.90
60033;DHT22;45905;50.570;10.428;2023-02-28T05:44:09;-3.20;99.90
60033;DHT22;45905;50.570;10.428;2023-02-28T05:46:37;-3.20;99.90
60033;DHT22;45905;50.570;10.428;2023-02-28T05:49:05;-3.30;99.90
60033;DHT22;45905;50.570;10.428;2023-02-28T05:51:32;-3.30;99.90
60033;DHT22;45905;50.570;10.428;2023-02-28T05:54:01;-3.30;99.90
60033;DHT22;45905;50.570;10.428;2023-02-28T05:56:28;-3.30;99.90
60033;DHT22;45905;50.570;10.428;2023-02-28T05:58:56;-3.40;99.90
60033;DHT22;45905;50.570;10.428;2023-02-28T06:01:35;-3.40;99.90
60033;DHT22;45905;50.570;10.428;2023-02-28T06:04:06;-3.40;99.90
60033;DHT22;45905;50.570;10.428;2023-02-28T06:06:40;-3.40;99.90
60033;DHT22;45905;50.570;10.428;2023-02-28T06:09:07;-3.50;99.90
60033;DHT22;45905;50.570;10.428;2023-02-28T06:11:34;-3.10;99.90
60033;DHT22;45905;50.570;10.428;2023-02-28T06:14:01;-3.50;99.90
60033;DHT22;45905;50.570;10.428;2023-02-28T06:16:32;-3.50;99.90
60033;DHT22;45905;50.570;10.428;2023-02-28T06:19:03;-3.50;99.90
60033;DHT22;45905;50.570;10.428;2023-02-28T06:21:31;-3.60;99.90
60033;DHT22;45905;50.570;10.428;2023-02-28T06:23:59;-3.60;99.90
60033;DHT22;45905;50.570;10.428;2023-02-28T06:26:26;-3.60;99.90
60033;DHT22;45905;50.570;10.428;2023-02-28T06:28:53;-3.60;99.90
60033;DHT22;45905;50.570;10.428;2023-02-28T06:31:21;-3.60;99.90
60033;DHT22;45905;50.570;10.428;2023-02-28T06:33:49;-3.60;99.90
60033;DHT22;45905;50.570;10.428;2023-02-28T06:36:17;-3.60;99.90
60033;DHT22;45905;50.570;10.428;2023-02-28T06:38:44;-3.60;99.90
60033;DHT22;45905;50.570;10.428;2023-02-28T06:41:12;-3.60;99.90
60033;DHT22;45905;50.570;10.428;2023-02-28T06:43:41;-3.60;99.90
60033;DHT22;45905;50.570;10.428;2023-02-28T06:46:12;-3.60;99.90
60033;DHT22;45905;50.570;10.428;2023-02-28T06:48:43;-3.60;99.90
60033;DHT22;45905;50.570;10.428;2023-02-28T06:51:13;-3.60;99.90
60033;DHT22;45905;50.570;10.428;2023-02-28T06:53:43;-3.60;99.90
60033;DHT22;45905;50.570;10.428;2023-02-28T06:56:12;-3.50;99.90
60033;DHT22;45905;50.570;10.428;2023-02-28T06:58:41;-3.50;99.90
60033;DHT22;45905;50.570;10.428;2023-02-28T07:01:08;-3.40;99.90
60033;DHT22;45905;50.570;10.428;2023-02-28T07:03:36;-3.40;99.90
60033;DHT22;45905;50.570;10.428;2023-02-28T07:06:04;-3.40;99.90
60033;DHT22;45905;50.570;10.428;2023-02-28T07:08:33;-3.40;99.90
60033;DHT22;45905;50.570;10.428;2023-02-28T07:11:01;-3.40;99.90
60033;DHT22;45905;50.570;10.428;2023-02-28T07:13:29;-3.40;99.90
60033;DHT22;45905;50.570;10.428;2023-02-28T07:16:04;-3.40;99.90
60033;DHT22;45905;50.570;10.428;2023-02-28T07:18:33;-3.40;99.90
60033;DHT22;45905;50.570;10.428;2023-02-28T07:21:05;-3.40;99.90
60033;DHT22;45905;50.570;10.428;2023-02-28T07:23:34;-3.40;99.90
60033;DHT22;45905;50.570;10.428;2023-02-28T07:26:01;-3.10;99.90
60033;DHT22;45905;50.570;10.428;2023-02-28T07:28:29;-3.40;99.90
60033;DHT22;45905;50.570;10.428;2023-02-28T07:30:56;-3.30;99.90
60033;DHT22;45905;50.570;10.428;2023-02-28T07:33:23;-3.30;99.90
60033;DHT22;45905;50.570;10.428;2023-02-28T07:35:51;-3.30;99.90
60033;DHT22;45905;50.570;10.428;2023-02-28T07:38:18;-3.30;99.90
60033;DHT22;45905;50.570;10.428;2023-02-28T07:40:45;-3.20;99.90
60033;DHT22;45905;50.570;10.428;2023-02-28T07:43:12;-3.30;99.90
60033;DHT22;45905;50.570;10.428;2023-02-28T07:45:39;-3.20;99.90
60033;DHT22;45905;50.570;10.428;2023-02-28T07:48:06;-3.10;99.90
60033;DHT22;45905;50.570;10.428;2023-02-28T07:50:36;-3.10;99.90
60033;DHT22;45905;50.570;10.428;2023-02-28T07:53:04;-2.90;99.90
60033;DHT22;45905;50.570;10.428;2023-02-28T07:55:31;-2.80;99.90
60033;DHT22;45905;50.570;10.428;2023-02-28T07:57:58;-2.80;99.90
60033;DHT22;45905;50.570;10.428;2023-02-28T08:00:26;-2.80;99.90
60033;DHT22;45905;50.570;10.428;2023-02-28T08:02:53;-2.70;99.90
60033;DHT22;45905;50.570;10.428;2023-02-28T08:05:20;-2.60;99.90
60033;DHT22;45905;50.570;10.428;2023-02-28T08:07:49;-2.60;99.90
60033;DHT22;45905;50.570;10.428;2023-02-28T08:10:17;-2.70;99.90
60033;DHT22;45905;50.570;10.428;2023-02-28T08:12:44;-2.50;99.90
60033;DHT22;45905;50.570;10.428;2023-02-28T08:15:11;-2.40;99.90
60033;DHT22;45905;50.570;10.428;2023-02-28T08:17:38;-2.40;99.90
60033;DHT22;45905;50.570;10.428;2023-02-28T08:20:06;-2.60;99.90
60033;DHT22;45905;50.570;10.428;2023-02-28T08:22:34;-2.30;99.90
60033;DHT22;45905;50.570;10.428;2023-02-28T08:25:01;-2.30;99.90
60033;DHT22;45905;50.570;10.428;2023-02-28T08:27:28;-2.20;99.90
60033;DHT22;45905;50.570;10.428;2023-02-28T08:29:55;-2.00;99.90
60033;DHT22;45905;50.570;10.428;2023-02-28T08:32:22;-2.20;99.90
60033;DHT22;45905;50.570;10.428;2023-02-28T08:34:56;-2.20;99.90
60033;DHT22;45905;50.570;10.428;2023-02-28T08:37:23;-2.10;99.90
60033;DHT22;45905;50.570;10.428;2023-02-28T08:39:50;-2.10;99.90
60033;DHT22;45905;50.570;10.428;2023-02-28T08:42:23;-2.00;99.90
60033;DHT22;45905;50.570;10.428;2023-02-28T08:44:50;-5.20;98.80
60033;DHT22;45905;50.570;10.428;2023-02-28T08:47:18;-2.10;99.70
60033;DHT22;45905;50.570;10.428;2023-02-28T08:49:45;-1.70;99.90
60033;DHT22;45905;50.570;10.428;2023-02-28T08:52:13;-1.70;98.50
60033;DHT22;45905;50.570;10.428;2023-02-28T08:54:40;-1.30;98.40
60033;DHT22;45905;50.570;10.428;2023-02-28T08:57:07;-1.60;98.30
60033;DHT22;45905;50.570;10.428;2023-02-28T08:59:34;-1.30;98.30
60033;DHT22;45905;50.570;10.428;2023-02-28T09:02:01;-1.50;97.90
60033;DHT22;45905;50.570;10.428;2023-02-28T09:04:28;-0.90;98.00
60033;DHT22;45905;50.570;10.428;2023-02-28T09:06:57;-1.30;97.70
60033;DHT22;45905;50.570;10.428;2023-02-28T09:09:25;-1.30;97.50
60033;DHT22;45905;50.570;10.428;2023-02-28T09:11:52;-1.00;97.40
60033;DHT22;45905;50.570;10.428;2023-02-28T09:14:19;-1.20;97.00
60033;DHT22;45905;50.570;10.428;2023-02-28T09:16:46;-1.30;97.10
60033;DHT22;45905;50.570;10.428;2023-02-28T09:19:13;-1.00;97.20
60033;DHT22;45905;50.570;10.428;2023-02-28T09:21:40;-1.10;97.00
60033;DHT22;45905;50.570;10.428;2023-02-28T09:24:08;-1.00;96.30
60033;DHT22;45905;50.570;10.428;2023-02-28T09:26:35;-0.90;97.10
60033;DHT22;45905;50.570;10.428;2023-02-28T09:29:13;-1.00;97.10
60033;DHT22;45905;50.570;10.428;2023-02-28T09:31:41;-0.80;96.90
60033;DHT22;45905;50.570;10.428;2023-02-28T09:34:08;-0.90;96.20
60033;DHT22;45905;50.570;10.428;2023-02-28T09:36:35;-0.90;96.30
60033;DHT22;45905;50.570;10.428;2023-02-28T09:39:12;-0.70;96.20
60033;DHT22;45905;50.570;10.428;2023-02-28T09:41:44;-0.70;96.00
60033;DHT22;45905;50.570;10.428;2023-02-28T09:47:29;-0.90;95.90
60033;DHT22;45905;50.570;10.428;2023-02-28T09:50:29;-0.60;95.10
60033;DHT22;45905;50.570;10.428;2023-02-28T09:53:03;-0.70;96.10
60033;DHT22;45905;50.570;10.428;2023-02-28T09:55:43;-0.50;96.20
60033;DHT22;45905;50.570;10.428;2023-02-28T10:06:50;-0.30;94.60
60033;DHT22;45905;50.570;10.428;2023-02-28T10:09:29;-0.20;94.60
60033;DHT22;45905;50.570;10.428;2023-02-28T10:12:04;-0.20;94.90
60033;DHT22;45905;50.570;10.428;2023-02-28T10:14:34;-0.20;94.90
60033;DHT22;45905;50.570;10.428;2023-02-28T10:17:16;-0.10;94.20
60033;DHT22;45905;50.570;10.428;2023-02-28T10:19:59;-0.10;94.20
60033;DHT22;45905;50.570;10.428;2023-02-28T10:25:55;0.10;94.60
60033;DHT22;45905;50.570;10.428;2023-02-28T10:28:28;0.10;94.30
60033;DHT22;45905;50.570;10.428;2023-02-28T10:30:58;0.20;94.70
60033;DHT22;45905;50.570;10.428;2023-02-28T10:33:30;0.30;94.40
60033;DHT22;45905;50.570;10.428;2023-02-28T10:36:02;1.60;94.80
60033;DHT22;45905;50.570;10.428;2023-02-28T10:38:37;0.50;94.40
60033;DHT22;45905;50.570;10.428;2023-02-28T10:41:08;0.50;94.20
60033;DHT22;45905;50.570;10.428;2023-02-28T10:43:39;0.50;94.00
60033;DHT22;45905;50.570;10.428;2023-02-28T10:48:50;0.70;94.40
60033;DHT22;45905;50.570;10.428;2023-02-28T10:51:35;0.90;94.50
60033;DHT22;45905;50.570;10.428;2023-02-28T10:54:04;0.80;93.30
60033;DHT22;45905;50.570;10.428;2023-02-28T10:56:32;0.80;93.70
60033;DHT22;45905;50.570;10.428;2023-02-28T11:01:44;0.90;93.00
60033;DHT22;45905;50.570;10.428;2023-02-28T11:07:23;1.00;92.00
60033;DHT22;45905;50.570;10.428;2023-02-28T11:09:57;1.00;92.00
60033;DHT22;45905;50.570;10.428;2023-02-28T11:12:33;1.00;92.50
60033;DHT22;45905;50.570;10.428;2023-02-28T11:15:32;1.10;92.50
60033;DHT22;45905;50.570;10.428;2023-02-28T11:18:02;1.20;92.20
60033;DHT22;45905;50.570;10.428;2023-02-28T11:20:38;1.40;92.00
60033;DHT22;45905;50.570;10.428;2023-02-28T11:23:12;1.50;91.70
60033;DHT22;45905;50.570;10.428;2023-02-28T11:25:54;1.60;91.20
60033;DHT22;45905;50.570;10.428;2023-02-28T11:33:48;1.60;91.00
60033;DHT22;45905;50.570;10.428;2023-02-28T11:36:24;1.70;91.00
60033;DHT22;45905;50.570;10.428;2023-02-28T11:38:55;1.80;91.30
60033;DHT22;45905;50.570;10.428;2023-02-28T11:44:58;2.00;90.80
60033;DHT22;45905;50.570;10.428;2023-02-28T11:48:09;2.00;90.30
60033;DHT22;45905;50.570;10.428;2023-02-28T11:51:11;2.00;88.50
60033;DHT22;45905;50.570;10.428;2023-02-28T11:56:47;2.10;88.90
60033;DHT22;45905;50.570;10.428;2023-02-28T12:10:28;2.10;87.20
60033;DHT22;45905;50.570;10.428;2023-02-28T12:22:28;2.30;87.90
60033;DHT22;45905;50.570;10.428;2023-02-28T12:28:11;2.40;86.50
60033;DHT22;45905;50.570;10.428;2023-02-28T12:30:56;2.50;88.30
60033;DHT22;45905;50.570;10.428;2023-02-28T12:33:34;2.70;88.40
60033;DHT22;45905;50.570;10.428;2023-02-28T12:36:10;2.70;88.70
60033;DHT22;45905;50.570;10.428;2023-02-28T12:38:49;2.90;90.30
60033;DHT22;45905;50.570;10.428;2023-02-28T12:44:19;3.20;89.40
60033;DHT22;45905;50.570;10.428;2023-02-28T12:46:55;3.30;88.60
60033;DHT22;45905;50.570;10.428;2023-02-28T12:52:18;3.30;84.80
60033;DHT22;45905;50.570;10.428;2023-02-28T12:55:04;3.30;84.90
60033;DHT22;45905;50.570;10.428;2023-02-28T12:57:48;3.30;85.90
60033;DHT22;45905;50.570;10.428;2023-02-28T13:00:25;3.50;86.40
60033;DHT22;45905;50.570;10.428;2023-02-28T13:06:00;3.60;85.30
60033;DHT22;45905;50.570;10.428;2023-02-28T13:11:41;3.80;86.50
60033;DHT22;45905;50.570;10.428;2023-02-28T13:19:46;3.80;84.00
60033;DHT22;45905;50.570;10.428;2023-02-28T13:25:02;3.90;84.00
60033;DHT22;45905;50.570;10.428;2023-02-28T13:27:53;3.90;81.00
60033;DHT22;45905;50.570;10.428;2023-02-28T13:38:52;3.90;82.30
60033;DHT22;45905;50.570;10.428;2023-02-28T13:44:06;3.90;80.40
60033;DHT22;45905;50.570;10.428;2023-02-28T13:49:26;4.00;81.30
60033;DHT22;45905;50.570;10.428;2023-02-28T14:06:37;4.30;80.00
60033;DHT22;45905;50.570;10.428;2023-02-28T14:09:29;4.20;78.20
60033;DHT22;45905;50.570;10.428;2023-02-28T14:18:01;4.40;79.90
60033;DHT22;45905;50.570;10.428;2023-02-28T14:20:32;4.50;79.20
60033;DHT22;45905;50.570;10.428;2023-02-28T14:26:00;4.60;80.20
60033;DHT22;45905;50.570;10.428;2023-02-28T14:31:13;4.70;78.90
60033;DHT22;45905;50.570;10.428;2023-02-28T14:33:57;4.70;77.10
60033;DHT22;45905;50.570;10.428;2023-02-28T14:36:37;4.70;76.70
60033;DHT22;45905;50.570;10.428;2023-02-28T14:39:07;4.70;77.60
60033;DHT22;45905;50.570;10.428;2023-02-28T14:41:42;4.70;76.90
60033;DHT22;45905;50.570;10.428;2023-02-28T14:44:22;4.60;75.70
60033;DHT22;45905;50.570;10.428;2023-02-28T14:46:53;4.60;75.70
60033;DHT22;45905;50.570;10.428;2023-02-28T14:49:41;4.50;76.30
60033;DHT22;45905;50.570;10.428;2023-02-28T14:52:25;4.50;77.20
60033;DHT22;45905;50.570;10.428;2023-02-28T14:54:59;4.50;77.20
60033;DHT22;45905;50.570;10.428;2023-02-28T14:57:32;4.50;77.20
60033;DHT22;45905;50.570;10.428;2023-02-28T15:00:14;4.60;78.00
60033;DHT22;45905;50.570;10.428;2023-02-28T15:02:47;4.60;77.50
60033;DHT22;45905;50.570;10.428;2023-02-28T15:07:45;4.60;74.20
60033;DHT22;45905;50.570;10.428;2023-02-28T15:10:20;4.40;75.30
60033;DHT22;45905;50.570;10.428;2023-02-28T15:12:57;4.30;75.30
60033;DHT22;45905;50.570;10.428;2023-02-28T15:15:49;4.30;76.50
60033;DHT22;45905;50.570;10.428;2023-02-28T15:26:30;4.20;76.60
60033;DHT22;45905;50.570;10.428;2023-02-28T15:29:18;4.20;75.70
60033;DHT22;45905;50.570;10.428;2023-02-28T15:31:52;4.20;76.60
60033;DHT22;45905;50.570;10.428;2023-02-28T15:34:42;4.20;76.90
60033;DHT22;45905;50.570;10.428;2023-02-28T15:37:33;4.20;76.30
60033;DHT22;45905;50.570;10.428;2023-02-28T15:40:38;4.10;76.10
60033;DHT22;45905;50.570;10.428;2023-02-28T15:43:17;4.00;75.80
60033;DHT22;45905;50.570;10.428;2023-02-28T15:46:09;3.90;75.70
60033;DHT22;45905;50.570;10.428;2023-02-28T15:48:54;3.80;76.00
60033;DHT22;45905;50.570;10.428;2023-02-28T15:51:35;3.70;76.20
60033;DHT22;45905;50.570;10.428;2023-02-28T15:54:12;3.60;76.10
60033;DHT22;45905;50.570;10.428;2023-02-28T15:56:49;3.50;76.80
60033;DHT22;45905;50.570;10.428;2023-02-28T15:59:22;3.50;77.00
60033;DHT22;45905;50.570;10.428;2023-02-28T16:04:37;3.30;77.10
60033;DHT22;45905;50.570;10.428;2023-02-28T16:07:25;3.30;77.40
60033;DHT22;45905;50.570;10.428;2023-02-28T16:09:53;3.10;77.60
60033;DHT22;45905;50.570;10.428;2023-02-28T16:12:26;3.10;78.20
60033;DHT22;45905;50.570;10.428;2023-02-28T16:15:00;3.00;78.10
60033;DHT22;45905;50.570;10.428;2023-02-28T16:17:34;3.00;78.20
60033;DHT22;45905;50.570;10.428;2023-02-28T16:20:15;2.90;78.30
60033;DHT22;45905;50.570;10.428;2023-02-28T16:22:44;2.80;78.50
60033;DHT22;45905;50.570;10.428;2023-02-28T16:25:17;2.70;78.90
60033;DHT22;45905;50.570;10.428;2023-02-28T16:27:52;2.60;79.20
60033;DHT22;45905;50.570;10.428;2023-02-28T16:30:26;2.60;79.60
60033;DHT22;45905;50.570;10.428;2023-02-28T16:32:55;2.60;79.60
60033;DHT22;45905;50.570;10.428;2023-02-28T16:35:23;2.70;79.70
60033;DHT22;45905;50.570;10.428;2023-02-28T16:37:51;2.40;80.00
60033;DHT22;45905;50.570;10.428;2023-02-28T16:40:24;2.40;80.10
60033;DHT22;45905;50.570;10.428;2023-02-28T16:42:57;2.30;80.20
60033;DHT22;45905;50.570;10.428;2023-02-28T16:45:28;2.40;80.90
60033;DHT22;45905;50.570;10.428;2023-02-28T16:47:56;2.40;81.30
60033;DHT22;45905;50.570;10.428;2023-02-28T16:50:29;2.20;81.30
60033;DHT22;45905;50.570;10.428;2023-02-28T16:52:56;2.30;81.60
60033;DHT22;45905;50.570;10.428;2023-02-28T16:55:25;2.10;81.80
60033;DHT22;45905;50.570;10.428;2023-02-28T16:57:58;2.10;81.90
60033;DHT22;45905;50.570;10.428;2023-02-28T17:00:28;2.10;82.40
60033;DHT22;45905;50.570;10.428;2023-02-28T17:02:58;2.00;82.40
60033;DHT22;45905;50.570;10.428;2023-02-28T17:05:28;2.00;82.40
60033;DHT22;45905;50.570;10.428;2023-02-28T17:08:02;1.90;83.00
60033;DHT22;45905;50.570;10.428;2023-02-28T17:10:30;1.90;83.50
60033;DHT22;45905;50.570;10.428;2023-02-28T17:12:57;1.90;83.90
60033;DHT22;45905;50.570;10.428;2023-02-28T17:15:41;1.80;84.30
60033;DHT22;45905;50.570;10.428;2023-02-28T17:18:13;1.80;84.40
60033;DHT22;45905;50.570;10.428;2023-02-28T17:20:42;1.80;84.70
60033;DHT22;45905;50.570;10.428;2023-02-28T17:23:10;1.70;84.90
60033;DHT22;45905;50.570;10.428;2023-02-28T17:25:37;1.60;85.30
60033;DHT22;45905;50.570;10.428;2023-02-28T17:28:04;2.00;85.90
60033;DHT22;45905;50.570;10.428;2023-02-28T17:30:33;1.80;86.10
60033;DHT22;45905;50.570;10.428;2023-02-28T17:33:01;1.50;86.20
60033;DHT22;45905;50.570;10.428;2023-02-28T17:35:28;1.50;86.60
60033;DHT22;45905;50.570;10.428;2023-02-28T17:37:55;1.40;86.80
60033;DHT22;45905;50.570;10.428;2023-02-28T17:40:23;1.40;87.00
60033;DHT22;45905;50.570;10.428;2023-02-28T17:42:51;1.30;87.10
60033;DHT22;45905;50.570;10.428;2023-02-28T17:45:21;1.30;86.80
60033;DHT22;45905;50.570;10.428;2023-02-28T17:47:49;1.20;86.70
60033;DHT22;45905;50.570;10.428;2023-02-28T17:50:20;1.10;86.90
60033;DHT22;45905;50.570;10.428;2023-02-28T17:52:48;1.00;87.20
60033;DHT22;45905;50.570;10.428;2023-02-28T17:55:17;1.00;87.70
60033;DHT22;45905;50.570;10.428;2023-02-28T17:57:46;0.90;87.90
60033;DHT22;45905;50.570;10.428;2023-02-28T18:00:15;0.90;88.40
60033;DHT22;45905;50.570;10.428;2023-02-28T18:02:44;0.80;88.60
60033;DHT22;45905;50.570;10.428;2023-02-28T18:05:11;0.70;89.00
60033;DHT22;45905;50.570;10.428;2023-02-28T18:07:39;0.70;89.60
60033;DHT22;45905;50.570;10.428;2023-02-28T18:10:14;0.70;90.00
60033;DHT22;45905;50.570;10.428;2023-02-28T18:12:50;0.60;90.10
60033;DHT22;45905;50.570;10.428;2023-02-28T18:15:19;0.60;90.10
60033;DHT22;45905;50.570;10.428;2023-02-28T18:17:48;0.70;90.20
60033;DHT22;45905;50.570;10.428;2023-02-28T18:20:16;0.50;90.40
60033;DHT22;45905;50.570;10.428;2023-02-28T18:22:43;0.50;90.60
60033;DHT22;45905;50.570;10.428;2023-02-28T18:25:11;0.50;90.70
60033;DHT22;45905;50.570;10.428;2023-02-28T18:27:45;0.40;90.70
60033;DHT22;45905;50.570;10.428;2023-02-28T18:30:29;0.40;90.80
60033;DHT22;45905;50.570;10.428;2023-02-28T18:32:59;0.40;90.90
60033;DHT22;45905;50.570;10.428;2023-02-28T18:35:28;0.30;91.00
60033;DHT22;45905;50.570;10.428;2023-02-28T18:38:10;0.30;90.80
60033;DHT22;45905;50.570;10.428;2023-02-28T18:40:41;0.20;90.70
60033;DHT22;45905;50.570;10.428;2023-02-28T18:43:09;0.20;90.90
60033;DHT22;45905;50.570;10.428;2023-02-28T18:45:37;0.10;91.00
60033;DHT22;45905;50.570;10.428;2023-02-28T18:48:05;0.10;91.20